Time;durP1;ratioP1;P1;durP2;ratioP2;P2;SDS_P1;SDS_P2;PMS_P1;PMS_P2;Temp;Humidity;BMP_temperature;BMP_pressure;BME280_temperature;BME280_humidity;BME280_pressure;Samples;Min_cycle;Max_cycle;Signal;HPM_P1;HPM_P2
2021/12/17 00:05:01;;;;;;;;;;;10.90;99.90;;;;;;5089771;28;19934;-79
2021/12/17 00:07:29;;;;;;;;;;;11.00;99.90;;;;;;5068942;28;20016;-80
2021/12/17 00:09:55;;;;;;;;;;;11.00;99.90;;;;;;5078420;28;19975;-79
2021/12/17 00:12:22;;;;;;;;;;;10.90;99.90;;;;;;5072265;28;19985;-79
2021/12/17 00:14:49;;;;;;;;;;;10.90;99.90;;;;;;5075703;28;19925;-80
2021/12/17 00:17:19;;;;;;;;;;;10.90;99.90;;;;;;5070957;28;20368;-79
2021/12/17 00:49:56;;;;;;;;;;;11.00;99.90;;;;;;5087925;28;20015;-80
2021/12/17 00:52:22;;;;;;;;;;;11.90;99.90;;;;;;5090931;28;19951;-79
2021/12/17 00:54:48;;;;;;;;;;;11.00;99.90;;;;;;5072061;28;20414;-80
2021/12/17 00:57:16;;;;;;;;;;;11.00;99.90;;;;;;5089349;28;20066;-79
2021/12/17 00:59:43;;;;;;;;;;;11.80;99.90;;;;;;5069212;28;20007;-80
2021/12/17 01:02:11;;;;;;;;;;;12.10;99.90;;;;;;5089075;28;19932;-80
2021/12/17 01:04:38;;;;;;;;;;;14.20;99.90;;;;;;5091013;28;19928;-79
2021/12/17 01:07:04;;;;;;;;;;;11.00;99.90;;;;;;5085783;28;19936;-80
2021/12/17 01:09:30;;;;;;;;;;;10.80;99.90;;;;;;5086968;28;19925;-79
2021/12/17 01:11:56;;;;;;;;;;;9.40;99.90;;;;;;5092170;28;20393;-80
2021/12/17 01:14:22;;;;;;;;;;;11.70;99.90;;;;;;5088135;28;19932;-80
2021/12/17 01:16:50;;;;;;;;;;;11.00;99.90;;;;;;5088117;28;20340;-79
2021/12/17 01:19:26;;;;;;;;;;;11.50;99.90;;;;;;5083836;28;19928;-81
2021/12/17 01:22:16;;;;;;;;;;;10.90;99.90;;;;;;5087985;28;20444;-79
2021/12/17 01:24:51;;;;;;;;;;;11.00;99.90;;;;;;5080698;28;19924;-79
2021/12/17 01:35:30;;;;;;;;;;;12.70;99.90;;;;;;5086929;28;19981;-79
2021/12/17 01:42:54;;;;;;;;;;;11.00;99.90;;;;;;5088238;28;19943;-79
2021/12/17 01:45:23;;;;;;;;;;;11.00;99.90;;;;;;5071233;28;19928;-79
2021/12/17 01:47:48;;;;;;;;;;;10.90;99.90;;;;;;5090372;28;19974;-79
2021/12/17 02:33:05;;;;;;;;;;;10.80;99.90;;;;;;5039033;28;19975;-89
2021/12/17 02:35:58;;;;;;;;;;;;;;;;;;;;;
2021/12/17 02:38:19;;;;;;;;;;;10.80;99.90;;;;;;5051402;28;19925;-88
2021/12/17 02:46:34;;;;;;;;;;;10.90;99.90;;;;;;5040342;28;19982;-89
2021/12/17 02:49:04;;;;;;;;;;;10.70;99.90;;;;;;5053556;28;19986;-89
2021/12/17 02:51:30;;;;;;;;;;;10.80;99.90;;;;;;5071452;28;19931;-89
2021/12/17 02:53:58;;;;;;;;;;;10.70;99.90;;;;;;5053781;28;19928;-89
2021/12/17 02:56:30;;;;;;;;;;;10.70;99.90;;;;;;5053927;28;20342;-89
2021/12/17 02:58:56;;;;;;;;;;;10.70;99.90;;;;;;5036753;28;19925;-89
2021/12/17 03:01:23;;;;;;;;;;;10.80;99.90;;;;;;5036540;28;19924;-89
2021/12/17 03:03:50;;;;;;;;;;;10.80;99.90;;;;;;5036297;28;20382;-88
2021/12/17 03:06:15;;;;;;;;;;;10.70;99.90;;;;;;5052933;28;20238;-88
2021/12/17 03:08:41;;;;;;;;;;;10.70;99.90;;;;;;5036662;28;19924;-90
2021/12/17 03:11:07;;;;;;;;;;;10.70;99.90;;;;;;5036460;28;20399;-88
2021/12/17 03:13:36;;;;;;;;;;;10.80;99.90;;;;;;5053540;28;19947;-88
2021/12/17 03:16:11;;;;;;;;;;;10.80;99.90;;;;;;5052860;28;20051;-88
2021/12/17 03:24:06;;;;;;;;;;;10.70;99.90;;;;;;5070190;28;19931;-87
2021/12/17 03:26:32;;;;;;;;;;;10.70;99.90;;;;;;5070121;28;20039;-88
2021/12/17 03:29:04;;;;;;;;;;;10.70;99.90;;;;;;5069709;28;20443;-87
2021/12/17 03:31:30;;;;;;;;;;;11.70;99.90;;;;;;5071293;28;19924;-87
2021/12/17 03:34:05;;;;;;;;;;;10.70;99.90;;;;;;5069849;28;20046;-87
2021/12/17 03:36:31;;;;;;;;;;;10.80;99.90;;;;;;5053287;28;19990;-87
2021/12/17 03:38:57;;;;;;;;;;;10.70;99.90;;;;;;5069794;28;20391;-87
2021/12/17 03:41:28;;;;;;;;;;;10.80;99.90;;;;;;5053182;28;19924;-87
2021/12/17 03:43:54;;;;;;;;;;;10.70;99.90;;;;;;5069555;28;19928;-86
2021/12/17 03:46:20;;;;;;;;;;;10.80;99.90;;;;;;5070160;28;19931;-86
2021/12/17 03:48:45;;;;;;;;;;;10.80;99.90;;;;;;5069775;28;19974;-86
2021/12/17 03:51:16;;;;;;;;;;;10.70;99.90;;;;;;5069068;28;19928;-86
2021/12/17 03:53:46;;;;;;;;;;;11.20;99.90;;;;;;5070073;28;19976;-89
2021/12/17 03:56:12;;;;;;;;;;;10.80;99.90;;;;;;5069656;28;19994;-87
2021/12/17 03:58:37;;;;;;;;;;;11.20;99.90;;;;;;5069701;28;20031;-87
2021/12/17 04:01:03;;;;;;;;;;;11.50;99.90;;;;;;5070030;28;20472;-87
2021/12/17 04:03:29;;;;;;;;;;;10.70;99.90;;;;;;5073930;28;20364;-86
2021/12/17 04:05:54;;;;;;;;;;;10.70;99.90;;;;;;5073252;28;19936;-85
2021/12/17 04:08:20;;;;;;;;;;;11.20;99.90;;;;;;5075069;28;20459;-86
2021/12/17 04:10:49;;;;;;;;;;;10.70;99.90;;;;;;5073336;28;19977;-89
2021/12/17 04:13:31;;;;;;;;;;;11.30;99.90;;;;;;5057181;28;19929;-85
2021/12/17 04:16:00;;;;;;;;;;;10.80;99.90;;;;;;5074539;28;19928;-86
2021/12/17 04:18:27;;;;;;;;;;;10.90;99.90;;;;;;5057046;28;19924;-86
2021/12/17 04:20:52;;;;;;;;;;;10.70;99.90;;;;;;5072583;28;19995;-86
2021/12/17 04:23:20;;;;;;;;;;;12.40;99.90;;;;;;5056834;28;20066;-86
2021/12/17 04:25:46;;;;;;;;;;;11.00;99.90;;;;;;5072840;28;19974;-86
2021/12/17 04:28:12;;;;;;;;;;;13.90;99.90;;;;;;5056546;28;19975;-85
2021/12/17 04:30:38;;;;;;;;;;;9.80;99.90;;;;;;5072966;28;19980;-85
2021/12/17 04:33:04;;;;;;;;;;;10.50;99.90;;;;;;5073988;28;19925;-85
2021/12/17 04:35:30;;;;;;;;;;;13.60;99.90;;;;;;5072540;28;20053;-85
2021/12/17 04:37:56;;;;;;;;;;;10.20;99.90;;;;;;5055665;28;19939;-84
2021/12/17 04:40:23;;;;;;;;;;;10.10;99.90;;;;;;5073046;28;20351;-85
2021/12/17 04:45:39;;;;;;;;;;;11.40;99.90;;;;;;5073109;28;19932;-86
2021/12/17 04:59:03;;;;;;;;;;;13.70;99.90;;;;;;5072267;28;19931;-85
2021/12/17 05:01:28;;;;;;;;;;;10.20;99.90;;;;;;5072830;28;20283;-86
2021/12/17 05:03:54;;;;;;;;;;;10.90;99.90;;;;;;5072295;28;19929;-85
2021/12/17 05:06:19;;;;;;;;;;;10.30;99.90;;;;;;5072296;28;19924;-85
2021/12/17 05:08:46;;;;;;;;;;;10.30;99.90;;;;;;5072405;28;20280;-84
2021/12/17 05:11:39;;;;;;;;;;;11.00;99.90;;;;;;5071747;28;19928;-84
2021/12/17 05:18:16;;;;;;;;;;;11.10;99.90;;;;;;5072542;28;20019;-84
2021/12/17 05:22:10;;;;;;;;;;;10.50;99.90;;;;;;5071582;28;19932;-84
2021/12/17 05:24:35;;;;;;;;;;;10.60;99.90;;;;;;5039328;28;19982;-84
2021/12/17 05:27:01;;;;;;;;;;;10.40;99.90;;;;;;5071171;28;19924;-83
2021/12/17 05:29:27;;;;;;;;;;;10.40;99.90;;;;;;5072471;28;19924;-86
2021/12/17 05:31:52;;;;;;;;;;;11.50;99.90;;;;;;5071733;28;19983;-91
2021/12/17 05:34:18;;;;;;;;;;;10.60;99.90;;;;;;5071086;28;19940;-85
2021/12/17 05:36:43;;;;;;;;;;;10.40;99.90;;;;;;5071733;28;19924;-89
2021/12/17 05:39:09;;;;;;;;;;;11.30;99.90;;;;;;5072784;28;19924;-86
2021/12/17 05:41:35;;;;;;;;;;;10.70;99.90;;;;;;5073556;28;20281;-85
2021/12/17 05:44:00;;;;;;;;;;;10.50;99.90;;;;;;5072935;28;19931;-86
2021/12/17 05:49:10;;;;;;;;;;;11.40;99.90;;;;;;5072745;28;20053;-86
2021/12/17 05:51:36;;;;;;;;;;;10.60;99.90;;;;;;5071399;28;20023;-87
2021/12/17 05:54:02;;;;;;;;;;;10.40;99.90;;;;;;5071581;28;19924;-87
2021/12/17 05:56:28;;;;;;;;;;;9.40;99.90;;;;;;5071728;28;19924;-87
2021/12/17 05:58:55;;;;;;;;;;;10.50;99.90;;;;;;5071191;28;19930;-86
2021/12/17 06:01:21;;;;;;;;;;;10.40;99.90;;;;;;5071657;28;19974;-85
2021/12/17 06:03:47;;;;;;;;;;;10.40;99.90;;;;;;5072066;28;20319;-85
2021/12/17 06:06:12;;;;;;;;;;;10.50;99.90;;;;;;5072184;28;20018;-84
2021/12/17 06:08:38;;;;;;;;;;;10.50;99.90;;;;;;5073049;28;19928;-85
2021/12/17 06:11:03;;;;;;;;;;;10.40;99.90;;;;;;5071152;28;19936;-85
2021/12/17 06:13:29;;;;;;;;;;;10.50;99.90;;;;;;5072988;28;19932;-84
2021/12/17 06:15:55;;;;;;;;;;;10.30;99.90;;;;;;5072585;28;20284;-84
2021/12/17 06:18:20;;;;;;;;;;;11.50;99.90;;;;;;5071459;28;19950;-84
2021/12/17 06:20:46;;;;;;;;;;;10.40;99.90;;;;;;5078761;28;20005;-84
2021/12/17 06:23:11;;;;;;;;;;;7.40;99.90;;;;;;5074139;28;19989;-83
2021/12/17 06:25:37;;;;;;;;;;;10.30;99.90;;;;;;5074090;28;19967;-85
2021/12/17 06:28:03;;;;;;;;;;;10.40;99.90;;;;;;5057796;28;19932;-83
2021/12/17 06:30:28;;;;;;;;;;;10.30;99.90;;;;;;5092085;28;19931;-83
2021/12/17 06:32:54;;;;;;;;;;;10.20;99.90;;;;;;5092397;28;20377;-84
2021/12/17 06:35:19;;;;;;;;;;;10.30;99.90;;;;;;5074322;28;19924;-84
2021/12/17 06:37:45;;;;;;;;;;;11.90;99.90;;;;;;5092424;28;19924;-82
2021/12/17 06:40:12;;;;;;;;;;;10.40;99.90;;;;;;5073720;28;19930;-85
2021/12/17 06:42:37;;;;;;;;;;;10.30;99.90;;;;;;5092075;28;20398;-84
2021/12/17 06:45:08;;;;;;;;;;;7.50;99.90;;;;;;5092009;28;19920;-84
2021/12/17 06:47:36;;;;;;;;;;;10.50;99.90;;;;;;5074638;28;19920;-85
2021/12/17 06:56:16;;;;;;;;;;;9.30;99.90;;;;;;5092373;28;19966;-84
2021/12/17 07:05:58;;;;;;;;;;;12.40;99.90;;;;;;5092101;28;19950;-84
2021/12/17 07:11:14;;;;;;;;;;;12.30;99.90;;;;;;5092294;28;19986;-84
2021/12/17 07:33:07;;;;;;;;;;;10.70;99.90;;;;;;5033009;28;20280;-83
2021/12/17 07:35:54;;;;;;;;;;;10.50;99.90;;;;;;5091992;28;19924;-84
2021/12/17 07:40:59;;;;;;;;;;;11.60;99.90;;;;;;5096287;28;19924;-84
2021/12/17 07:44:10;;;;;;;;;;;11.80;99.90;;;;;;5077408;28;20496;-84
2021/12/17 07:46:12;;;;;;;;;;;12.10;99.90;;;;;;5062953;28;20273;-83
2021/12/17 07:48:38;;;;;;;;;;;11.40;99.90;;;;;;5095960;28;20007;-85
2021/12/17 07:51:05;;;;;;;;;;;10.50;99.90;;;;;;5095186;28;19977;-83
2021/12/17 07:53:31;;;;;;;;;;;12.50;99.90;;;;;;5095655;28;19924;-84
2021/12/17 07:55:57;;;;;;;;;;;10.50;99.90;;;;;;5077177;28;19973;-83
2021/12/17 07:58:23;;;;;;;;;;;11.70;99.90;;;;;;5095336;28;20283;-84
2021/12/17 08:00:49;;;;;;;;;;;10.60;99.90;;;;;;5077458;28;20421;-85
2021/12/17 08:03:14;;;;;;;;;;;10.60;99.90;;;;;;5093515;28;19928;-85
2021/12/17 08:05:42;;;;;;;;;;;12.10;99.90;;;;;;5095093;28;19947;-88
2021/12/17 08:08:08;;;;;;;;;;;10.50;99.90;;;;;;5077230;28;20389;-90
2021/12/17 08:10:34;;;;;;;;;;;12.40;99.90;;;;;;5095013;28;20344;-84
2021/12/17 08:12:59;;;;;;;;;;;10.60;99.90;;;;;;5095398;28;19931;-87
2021/12/17 08:15:32;;;;;;;;;;;10.60;99.90;;;;;;5076803;28;20283;-84
2021/12/17 08:31:25;;;;;;;;;;;10.70;99.90;;;;;;5076629;28;19920;-84
2021/12/17 08:33:51;;;;;;;;;;;10.70;99.90;;;;;;5076768;28;20376;-87
2021/12/17 08:36:18;;;;;;;;;;;11.30;99.90;;;;;;5094025;28;19924;-83
2021/12/17 08:38:44;;;;;;;;;;;12.80;99.90;;;;;;5094124;28;19924;-85
2021/12/17 08:41:10;;;;;;;;;;;10.70;99.90;;;;;;5060241;28;19931;-88
2021/12/17 08:43:36;;;;;;;;;;;11.00;99.90;;;;;;5094700;28;20421;-84
2021/12/17 08:46:02;;;;;;;;;;;10.80;99.90;;;;;;5094694;28;20019;-84
2021/12/17 08:48:27;;;;;;;;;;;10.90;99.90;;;;;;5075446;28;19928;-84
2021/12/17 08:50:53;;;;;;;;;;;12.80;99.90;;;;;;5094149;28;19925;-84
2021/12/17 08:53:19;;;;;;;;;;;10.80;99.90;;;;;;5076324;28;19931;-85
2021/12/17 08:55:45;;;;;;;;;;;10.90;99.90;;;;;;5094451;28;19928;-85
2021/12/17 08:58:13;;;;;;;;;;;10.90;99.90;;;;;;5076551;28;19931;-89
2021/12/17 09:00:41;;;;;;;;;;;13.10;99.90;;;;;;5094156;28;19924;-85
2021/12/17 09:03:09;;;;;;;;;;;11.00;99.90;;;;;;5074984;28;19931;-85
2021/12/17 09:05:37;;;;;;;;;;;11.00;99.90;;;;;;5093676;28;20382;-86
2021/12/17 09:08:03;;;;;;;;;;;12.60;99.90;;;;;;5094282;28;19924;-84
2021/12/17 09:10:29;;;;;;;;;;;11.10;99.90;;;;;;5075860;28;19931;-84
2021/12/17 09:12:55;;;;;;;;;;;10.90;99.90;;;;;;5059691;28;20283;-85
2021/12/17 09:15:20;;;;;;;;;;;12.00;99.90;;;;;;5093794;28;19924;-86
2021/12/17 09:17:46;;;;;;;;;;;11.00;99.90;;;;;;5093846;28;19924;-86
2021/12/17 09:20:11;;;;;;;;;;;11.20;99.90;;;;;;5093888;28;20038;-86
2021/12/17 09:22:37;;;;;;;;;;;11.20;99.90;;;;;;5093498;28;19931;-85
2021/12/17 09:25:04;;;;;;;;;;;11.20;99.90;;;;;;5093859;28;19924;-85
2021/12/17 09:27:29;;;;;;;;;;;11.10;99.90;;;;;;5092958;28;19990;-86
2021/12/17 09:29:55;;;;;;;;;;;11.20;99.90;;;;;;5075788;28;20446;-85
2021/12/17 09:32:21;;;;;;;;;;;11.30;99.90;;;;;;5091915;28;19930;-85
2021/12/17 09:34:47;;;;;;;;;;;11.60;99.90;;;;;;5075484;28;19925;-85
2021/12/17 09:37:13;;;;;;;;;;;11.10;99.90;;;;;;5093422;28;20401;-85
2021/12/17 09:39:39;;;;;;;;;;;11.20;99.90;;;;;;5093088;28;19924;-85
2021/12/17 09:42:04;;;;;;;;;;;11.30;99.90;;;;;;5093611;28;19947;-85
2021/12/17 09:44:30;;;;;;;;;;;11.20;99.90;;;;;;5092973;28;19924;-85
2021/12/17 09:46:57;;;;;;;;;;;11.30;99.90;;;;;;5093491;28;19935;-86
2021/12/17 09:49:23;;;;;;;;;;;11.40;99.90;;;;;;5093180;28;20023;-86
2021/12/17 09:51:49;;;;;;;;;;;10.90;99.90;;;;;;5092028;28;20016;-85
2021/12/17 09:54:14;;;;;;;;;;;14.00;99.90;;;;;;5093496;28;19928;-85
2021/12/17 09:56:40;;;;;;;;;;;11.40;99.90;;;;;;5075278;28;20023;-86
2021/12/17 09:59:06;;;;;;;;;;;11.40;99.90;;;;;;5092185;28;19924;-85
2021/12/17 10:01:35;;;;;;;;;;;12.50;99.90;;;;;;5093142;28;19985;-91
2021/12/17 10:04:14;;;;;;;;;;;11.40;99.90;;;;;;5074172;28;19924;-87
2021/12/17 10:06:40;;;;;;;;;;;11.40;99.90;;;;;;5092351;28;20368;-85
2021/12/17 10:09:06;;;;;;;;;;;11.40;99.90;;;;;;5075301;28;20065;-86
2021/12/17 10:11:31;;;;;;;;;;;11.50;99.90;;;;;;5092720;28;20030;-86
2021/12/17 10:14:14;;;;;;;;;;;11.50;99.90;;;;;;5058100;28;20351;-86
2021/12/17 10:16:40;;;;;;;;;;;11.60;99.90;;;;;;5074797;28;19928;-86
2021/12/17 10:19:05;;;;;;;;;;;10.80;99.90;;;;;;5093134;28;20205;-86
2021/12/17 10:21:34;;;;;;;;;;;11.40;99.90;;;;;;5057076;28;19998;-86
2021/12/17 10:23:59;;;;;;;;;;;11.50;99.90;;;;;;5092781;28;19931;-86
2021/12/17 10:26:27;;;;;;;;;;;11.60;99.90;;;;;;5073977;28;19928;-86
2021/12/17 10:28:52;;;;;;;;;;;11.60;99.90;;;;;;5092930;28;19924;-86
2021/12/17 10:31:19;;;;;;;;;;;12.60;99.90;;;;;;5074685;28;19928;-87
2021/12/17 10:33:51;;;;;;;;;;;11.60;99.90;;;;;;5090813;28;19976;-87
2021/12/17 10:36:17;;;;;;;;;;;11.70;99.90;;;;;;5092044;28;19924;-86
2021/12/17 10:38:45;;;;;;;;;;;13.20;99.90;;;;;;5091378;28;20009;-85
2021/12/17 10:41:14;;;;;;;;;;;11.60;99.90;;;;;;5092589;28;19944;-86
2021/12/17 10:43:44;;;;;;;;;;;11.60;99.90;;;;;;5092207;28;20027;-87
2021/12/17 10:46:31;;;;;;;;;;;11.80;99.90;;;;;;5074351;28;19924;-87
2021/12/17 10:49:13;;;;;;;;;;;11.80;99.90;;;;;;5092530;28;20292;-85
2021/12/17 10:54:12;;;;;;;;;;;12.00;99.90;;;;;;5092153;28;20035;-85
2021/12/17 10:56:39;;;;;;;;;;;11.90;99.90;;;;;;5091871;28;19977;-85
2021/12/17 10:59:07;;;;;;;;;;;12.00;99.90;;;;;;5092444;28;19935;-85
2021/12/17 11:01:40;;;;;;;;;;;13.00;99.90;;;;;;5073630;28;19924;-86
2021/12/17 11:04:05;;;;;;;;;;;12.50;99.90;;;;;;5090068;28;19928;-85
2021/12/17 11:06:44;;;;;;;;;;;11.80;99.90;;;;;;5091082;28;19931;-85
2021/12/17 11:09:10;;;;;;;;;;;12.00;99.90;;;;;;5092147;28;20306;-85
2021/12/17 11:11:41;;;;;;;;;;;12.00;99.90;;;;;;5090585;28;19924;-84
2021/12/17 11:14:07;;;;;;;;;;;12.00;99.90;;;;;;5074585;28;19924;-85
2021/12/17 11:16:34;;;;;;;;;;;12.10;99.90;;;;;;5073429;28;19924;-85
2021/12/17 11:18:59;;;;;;;;;;;13.20;99.90;;;;;;5092141;28;20089;-85
2021/12/17 11:21:25;;;;;;;;;;;12.10;99.90;;;;;;5056640;28;20419;-86
2021/12/17 11:23:51;;;;;;;;;;;12.00;99.90;;;;;;5091280;28;20054;-86
2021/12/17 11:26:17;;;;;;;;;;;11.90;99.90;;;;;;5091967;28;19924;-86
2021/12/17 11:28:45;;;;;;;;;;;12.50;99.90;;;;;;5091568;28;19924;-86
2021/12/17 11:31:11;;;;;;;;;;;12.10;99.90;;;;;;5091502;28;20368;-86
2021/12/17 11:33:37;;;;;;;;;;;14.00;99.90;;;;;;5089592;28;19931;-86
2021/12/17 11:36:03;;;;;;;;;;;12.10;99.90;;;;;;5091210;28;19931;-90
2021/12/17 11:38:29;;;;;;;;;;;12.10;99.90;;;;;;5091700;28;19924;-87
2021/12/17 11:41:15;;;;;;;;;;;12.00;99.90;;;;;;5072969;28;20100;-88
2021/12/17 11:43:51;;;;;;;;;;;12.30;99.90;;;;;;5072508;28;20293;-86
2021/12/17 11:46:21;;;;;;;;;;;12.00;99.90;;;;;;5091371;28;20282;-85
2021/12/17 11:48:51;;;;;;;;;;;12.00;99.90;;;;;;5091170;28;20018;-86
2021/12/17 11:51:18;;;;;;;;;;;12.00;99.90;;;;;;5091253;28;19924;-85
2021/12/17 11:54:04;;;;;;;;;;;12.10;99.90;;;;;;5073179;28;19924;-85
2021/12/17 11:56:51;;;;;;;;;;;12.10;99.90;;;;;;5091395;28;19940;-94
2021/12/17 11:59:32;;;;;;;;;;;12.20;99.90;;;;;;5091859;28;19925;-86
2021/12/17 12:02:03;;;;;;;;;;;12.00;99.90;;;;;;5073448;28;19924;-85
2021/12/17 12:04:32;;;;;;;;;;;12.10;99.90;;;;;;5089876;28;19927;-88
2021/12/17 12:07:30;;;;;;;;;;;12.20;99.90;;;;;;5091037;28;19940;-86
2021/12/17 12:10:19;;;;;;;;;;;12.30;99.90;;;;;;5018522;28;20048;-86
2021/12/17 12:12:45;;;;;;;;;;;12.20;99.90;;;;;;5090991;28;20327;-86
2021/12/17 12:15:16;;;;;;;;;;;12.30;99.90;;;;;;5091274;28;19931;-85
2021/12/17 12:17:57;;;;;;;;;;;12.30;99.90;;;;;;5072858;28;19924;-85
2021/12/17 12:20:38;;;;;;;;;;;12.30;99.90;;;;;;5091415;28;20386;-86
2021/12/17 12:23:13;;;;;;;;;;;12.40;99.90;;;;;;5093567;28;19924;-86
2021/12/17 12:25:38;;;;;;;;;;;13.80;99.90;;;;;;5076585;28;20288;-86
2021/12/17 12:28:04;;;;;;;;;;;13.80;99.90;;;;;;5077183;28;19924;-85
2021/12/17 12:30:37;;;;;;;;;;;12.30;99.90;;;;;;5094729;28;20003;-86
2021/12/17 12:33:06;;;;;;;;;;;12.30;99.90;;;;;;5093422;28;19924;-86
2021/12/17 12:35:32;;;;;;;;;;;12.30;99.90;;;;;;5094463;28;19924;-85
2021/12/17 12:38:19;;;;;;;;;;;12.30;99.90;;;;;;5059546;28;19924;-86
2021/12/17 12:40:54;;;;;;;;;;;12.30;99.90;;;;;;5094003;28;19928;-85
2021/12/17 12:43:29;;;;;;;;;;;12.30;99.90;;;;;;5094214;28;20209;-85
2021/12/17 12:45:54;;;;;;;;;;;12.20;99.90;;;;;;5093714;28;20540;-85
2021/12/17 12:48:36;;;;;;;;;;;12.10;99.90;;;;;;5094553;28;19924;-85
2021/12/17 12:51:15;;;;;;;;;;;12.20;99.90;;;;;;5094073;28;19924;-86
2021/12/17 12:54:00;;;;;;;;;;;12.20;99.90;;;;;;5094423;28;19931;-85
2021/12/17 12:56:26;;;;;;;;;;;12.30;99.90;;;;;;5076290;28;19943;-86
2021/12/17 12:58:52;;;;;;;;;;;13.30;99.90;;;;;;5076228;28;20424;-85
2021/12/17 13:01:19;;;;;;;;;;;12.60;99.90;;;;;;5075994;28;19924;-85
2021/12/17 13:03:45;;;;;;;;;;;12.30;99.90;;;;;;5076228;28;19984;-85
2021/12/17 13:06:16;;;;;;;;;;;13.00;99.90;;;;;;5094271;28;19944;-86
2021/12/17 13:08:42;;;;;;;;;;;13.50;99.90;;;;;;5093699;28;20336;-86
2021/12/17 13:11:07;;;;;;;;;;;12.20;99.90;;;;;;5076210;28;19924;-85
2021/12/17 13:13:43;;;;;;;;;;;12.10;99.90;;;;;;5094523;28;19928;-86
2021/12/17 13:16:21;;;;;;;;;;;12.10;99.90;;;;;;5094430;28;19927;-87
2021/12/17 13:24:15;;;;;;;;;;;12.10;99.90;;;;;;5093394;28;20065;-84
2021/12/17 13:26:48;;;;;;;;;;;12.00;99.90;;;;;;5093272;28;20417;-85
2021/12/17 13:29:20;;;;;;;;;;;12.10;99.90;;;;;;5075831;28;19924;-83
2021/12/17 13:31:49;;;;;;;;;;;12.10;99.90;;;;;;5093310;28;19924;-85
2021/12/17 13:34:20;;;;;;;;;;;12.00;99.90;;;;;;5093361;28;19928;-84
2021/12/17 13:36:50;;;;;;;;;;;12.00;99.90;;;;;;5093092;28;19983;-85
2021/12/17 13:39:16;;;;;;;;;;;11.90;99.90;;;;;;5091957;28;19924;-84
2021/12/17 13:41:43;;;;;;;;;;;12.50;99.90;;;;;;5092875;28;19930;-89
2021/12/17 13:44:27;;;;;;;;;;;12.00;99.90;;;;;;5093581;28;19961;-84
2021/12/17 13:46:53;;;;;;;;;;;11.90;99.90;;;;;;5092770;28;19924;-88
2021/12/17 13:49:19;;;;;;;;;;;12.00;99.90;;;;;;5075701;28;19931;-84
2021/12/17 13:51:45;;;;;;;;;;;11.90;99.90;;;;;;5092528;28;19932;-84
2021/12/17 13:54:10;;;;;;;;;;;11.90;99.90;;;;;;5093398;28;20368;-85
2021/12/17 13:56:36;;;;;;;;;;;11.90;99.90;;;;;;5075054;28;19924;-86
2021/12/17 13:59:02;;;;;;;;;;;11.90;99.90;;;;;;5092976;28;20133;-86
2021/12/17 14:01:28;;;;;;;;;;;10.40;99.90;;;;;;5094643;28;19928;-86
2021/12/17 14:03:53;;;;;;;;;;;11.90;99.90;;;;;;5093243;28;19924;-85
2021/12/17 14:06:25;;;;;;;;;;;11.80;99.90;;;;;;5058261;28;19924;-86
2021/12/17 14:08:51;;;;;;;;;;;11.80;99.90;;;;;;5091318;28;20272;-85
2021/12/17 14:11:18;;;;;;;;;;;11.90;99.90;;;;;;5093206;28;19931;-84
2021/12/17 14:13:43;;;;;;;;;;;14.10;99.90;;;;;;5092794;28;20283;-89
2021/12/17 14:16:09;;;;;;;;;;;12.20;99.90;;;;;;5093117;28;19924;-85
2021/12/17 14:18:34;;;;;;;;;;;11.80;99.90;;;;;;5093242;28;19935;-84
2021/12/17 14:21:01;;;;;;;;;;;11.80;99.90;;;;;;5074084;28;19934;-85
2021/12/17 14:23:28;;;;;;;;;;;11.80;99.90;;;;;;5074984;28;19924;-85
2021/12/17 14:25:55;;;;;;;;;;;11.70;99.90;;;;;;5074362;28;20258;-85
2021/12/17 14:28:25;;;;;;;;;;;12.30;99.90;;;;;;5093033;28;19924;-86
2021/12/17 14:30:57;;;;;;;;;;;11.70;99.90;;;;;;5092378;28;19925;-85
2021/12/17 14:33:24;;;;;;;;;;;11.70;99.90;;;;;;5090616;28;20057;-85
2021/12/17 14:35:55;;;;;;;;;;;11.70;99.90;;;;;;5073826;28;19982;-86
2021/12/17 14:38:22;;;;;;;;;;;11.70;99.90;;;;;;5092409;28;20407;-85
2021/12/17 14:40:58;;;;;;;;;;;11.60;99.90;;;;;;5091206;28;19931;-85
2021/12/17 14:43:33;;;;;;;;;;;11.70;99.90;;;;;;5092322;28;20018;-86
2021/12/17 14:46:13;;;;;;;;;;;11.70;99.90;;;;;;5091000;28;19924;-84
2021/12/17 14:48:51;;;;;;;;;;;12.90;99.90;;;;;;5092263;28;20372;-84
2021/12/17 15:04:44;;;;;;;;;;;13.80;99.90;;;;;;5092351;28;19928;-85
2021/12/17 15:07:10;;;;;;;;;;;11.50;99.90;;;;;;5091350;28;19924;-86
2021/12/17 15:09:39;;;;;;;;;;;11.60;99.90;;;;;;5092278;28;19978;-86
2021/12/17 15:12:23;;;;;;;;;;;11.50;99.90;;;;;;5098121;28;19928;-88
2021/12/17 15:14:49;;;;;;;;;;;11.50;99.90;;;;;;5091843;28;20413;-88
2021/12/17 15:17:15;;;;;;;;;;;12.10;99.90;;;;;;5072589;28;19935;-85
2021/12/17 15:19:41;;;;;;;;;;;10.80;99.90;;;;;;5091709;28;19924;-88
2021/12/17 15:22:06;;;;;;;;;;;11.50;99.90;;;;;;5072662;28;19928;-86
2021/12/17 15:24:32;;;;;;;;;;;11.90;99.90;;;;;;5074222;28;19924;-86
2021/12/17 15:26:57;;;;;;;;;;;11.50;99.90;;;;;;5091173;28;19928;-86
2021/12/17 15:29:24;;;;;;;;;;;13.30;99.90;;;;;;5073629;28;19924;-87
2021/12/17 15:31:51;;;;;;;;;;;11.40;99.90;;;;;;5091394;28;19924;-89
2021/12/17 15:34:17;;;;;;;;;;;11.40;99.90;;;;;;5073703;28;19924;-88
2021/12/17 15:36:43;;;;;;;;;;;11.50;99.90;;;;;;5091468;28;20264;-87
2021/12/17 15:39:08;;;;;;;;;;;11.40;99.90;;;;;;5073166;28;20005;-86
2021/12/17 15:41:39;;;;;;;;;;;11.40;99.90;;;;;;5091673;28;19975;-87
2021/12/17 15:44:05;;;;;;;;;;;11.50;99.90;;;;;;5091671;28;19979;-87
2021/12/17 15:46:31;;;;;;;;;;;11.60;99.90;;;;;;5091490;28;19928;-87
2021/12/17 15:48:56;;;;;;;;;;;11.20;99.90;;;;;;5073223;28;19957;-87
2021/12/17 15:51:22;;;;;;;;;;;11.50;99.90;;;;;;5073294;28;20026;-87
2021/12/17 15:53:47;;;;;;;;;;;11.50;99.90;;;;;;5056491;28;19931;-87
2021/12/17 15:56:13;;;;;;;;;;;11.40;99.90;;;;;;5073709;28;20031;-86
2021/12/17 15:58:38;;;;;;;;;;;13.30;99.90;;;;;;5077147;28;19924;-88
2021/12/17 16:01:04;;;;;;;;;;;11.60;99.90;;;;;;5095141;28;19931;-87
2021/12/17 16:03:35;;;;;;;;;;;11.50;99.90;;;;;;5095465;28;19977;-87
2021/12/17 16:06:03;;;;;;;;;;;11.50;99.90;;;;;;5076484;28;19924;-87
2021/12/17 16:08:32;;;;;;;;;;;11.50;99.90;;;;;;5095514;28;19931;-86
2021/12/17 16:21:50;;;;;;;;;;;11.40;99.90;;;;;;5094627;28;19924;-87
2021/12/17 16:24:16;;;;;;;;;;;14.20;99.90;;;;;;5077082;28;19931;-87
2021/12/17 16:26:42;;;;;;;;;;;11.40;99.90;;;;;;5094774;28;19924;-85
2021/12/17 16:29:15;;;;;;;;;;;11.40;99.90;;;;;;5094891;28;19978;-85
2021/12/17 16:31:40;;;;;;;;;;;11.40;99.90;;;;;;5077140;28;20409;-84
2021/12/17 16:34:06;;;;;;;;;;;11.50;99.90;;;;;;5059639;28;20077;-84
2021/12/17 16:36:39;;;;;;;;;;;11.30;99.90;;;;;;5094606;28;19931;-84
2021/12/17 16:39:05;;;;;;;;;;;11.30;99.90;;;;;;5076660;28;19924;-86
2021/12/17 16:41:31;;;;;;;;;;;11.70;99.90;;;;;;5094527;28;20018;-85
2021/12/17 16:44:03;;;;;;;;;;;11.30;99.90;;;;;;5094030;28;19990;-87
2021/12/17 16:49:04;;;;;;;;;;;11.40;99.90;;;;;;5094259;28;20011;-87
2021/12/17 16:51:30;;;;;;;;;;;11.60;99.90;;;;;;5057551;28;20019;-86
2021/12/17 16:53:57;;;;;;;;;;;11.60;99.90;;;;;;5075823;28;20011;-89
2021/12/17 16:56:23;;;;;;;;;;;11.30;99.90;;;;;;5093961;28;19924;-84
2021/12/17 16:58:49;;;;;;;;;;;11.50;99.90;;;;;;5075816;28;19924;-86
2021/12/17 17:01:14;;;;;;;;;;;11.30;99.90;;;;;;5075685;28;20023;-83
2021/12/17 17:03:40;;;;;;;;;;;13.10;99.90;;;;;;5076074;28;19924;-83
2021/12/17 17:06:06;;;;;;;;;;;11.40;99.90;;;;;;5075162;28;19924;-85
2021/12/17 17:08:32;;;;;;;;;;;11.70;99.90;;;;;;5075468;28;19924;-84
2021/12/17 17:11:02;;;;;;;;;;;13.10;99.90;;;;;;5093296;28;19935;-86
2021/12/17 17:13:28;;;;;;;;;;;14.10;99.90;;;;;;5075939;28;19924;-84
2021/12/17 17:15:53;;;;;;;;;;;11.60;99.90;;;;;;5076019;28;19934;-84
2021/12/17 17:18:19;;;;;;;;;;;11.80;99.90;;;;;;5076017;28;19924;-85
2021/12/17 17:20:48;;;;;;;;;;;13.60;99.90;;;;;;5059347;28;19979;-86
2021/12/17 17:23:15;;;;;;;;;;;13.30;99.90;;;;;;5053032;28;20022;-84
2021/12/17 17:25:40;;;;;;;;;;;11.20;99.90;;;;;;5072756;28;20270;-86
2021/12/17 17:28:06;;;;;;;;;;;11.30;99.90;;;;;;5072241;28;19939;-86
2021/12/17 17:30:33;;;;;;;;;;;11.20;99.90;;;;;;5074107;28;20387;-87
2021/12/17 17:32:59;;;;;;;;;;;11.30;99.90;;;;;;5073490;28;19970;-86
2021/12/17 17:35:24;;;;;;;;;;;14.00;99.90;;;;;;5073720;28;19925;-87
2021/12/17 17:37:50;;;;;;;;;;;11.30;99.90;;;;;;5072243;28;19924;-86
2021/12/17 17:40:16;;;;;;;;;;;11.20;99.90;;;;;;5072526;28;19928;-85
2021/12/17 17:42:42;;;;;;;;;;;11.40;99.90;;;;;;5073373;28;20356;-85
2021/12/17 17:45:08;;;;;;;;;;;12.20;99.90;;;;;;5072280;28;19977;-86
2021/12/17 17:47:34;;;;;;;;;;;11.30;99.90;;;;;;5072561;28;20315;-87
2021/12/17 17:50:00;;;;;;;;;;;12.10;99.90;;;;;;5073422;28;20444;-89
2021/12/17 17:52:25;;;;;;;;;;;13.60;99.90;;;;;;5073139;28;19974;-86
2021/12/17 17:54:51;;;;;;;;;;;11.30;99.90;;;;;;5072471;28;19962;-85